-8.41C
облачно с прояснениями
облачно с прояснениями
Дата и времяТемператураДавление, мм рт.ст.Влажность, %Осадки
МинимумМаксимум
14.04.2024 08:00-8.41C-8.41C75090облачно с прояснениями
14.04.2024 11:00-7.57C-5.9C75088облачно с прояснениями
14.04.2024 14:00-6.12C-4.97C75284пасмурно
14.04.2024 17:00-5.72C-5.72C75585небольшой снег
14.04.2024 20:00-9.43C-9.43C75691пасмурно
14.04.2024 23:00-12.98C-12.98C75894облачно с прояснениями
15.04.2024 02:00-15.8C-15.8C75996небольшая облачность
15.04.2024 05:00-17.81C-17.81C76194небольшая облачность
15.04.2024 08:00-13.8C-13.8C76280небольшая облачность
15.04.2024 11:00-9.76C-9.76C76366небольшая облачность
15.04.2024 14:00-7.12C-7.12C76575небольшая облачность
15.04.2024 17:00-6.17C-6.17C76579облачно с прояснениями
15.04.2024 20:00-11.2C-11.2C76593переменная облачность
15.04.2024 23:00-11.15C-11.15C76591небольшая облачность
16.04.2024 02:00-9.85C-9.85C76589небольшая облачность
16.04.2024 05:00-8.94C-8.94C76588переменная облачность
16.04.2024 08:00-3.37C-3.37C76583облачно с прояснениями
16.04.2024 11:000.46C0.46C76488пасмурно
16.04.2024 14:002.08C2.08C76488переменная облачность
16.04.2024 17:002.22C2.22C76282переменная облачность
16.04.2024 20:00-0.03C-0.03C76283небольшая облачность
16.04.2024 23:00-0.81C-0.81C76084небольшая облачность
17.04.2024 02:00-0.57C-0.57C75987облачно с прояснениями
17.04.2024 05:00-0.17C-0.17C75688пасмурно
17.04.2024 08:000.45C0.45C75497снег
17.04.2024 11:000.88C0.88C75398снег
17.04.2024 14:001.87C1.87C75399небольшой дождь
17.04.2024 17:002.67C2.67C753100пасмурно
17.04.2024 20:002.87C2.87C752100небольшой дождь
17.04.2024 23:000.7C0.7C75298пасмурно
18.04.2024 02:000.22C0.22C75199пасмурно
18.04.2024 05:00-0.34C-0.34C74999пасмурно
18.04.2024 08:001.52C1.52C745100небольшой дождь
18.04.2024 11:000.99C0.99C743100дождь
18.04.2024 14:000.78C0.78C744100небольшой снег
18.04.2024 17:000.82C0.82C74898небольшой снег
18.04.2024 20:000.89C0.89C75298пасмурно
18.04.2024 23:00-2C-2C75692небольшой снег
19.04.2024 02:00-6.58C-6.58C75991небольшой снег
19.04.2024 05:00-9.6C-9.6C76290пасмурно
Дата и время наблюдения: 14.04.2024 07:41:40